Airfield :
LOGIN :

Register | Disclaimer

   EN    FR    IT 

 










Legend :    VFR   Marginal VFR   IFR   Intensive IFR   Very Intensive IFR
Visi :
Ceiling :
>= 8 km
>= 3000ft
5 to 8 km
1000 to 3000 ft
1500m to 5 km
500 to 1000 ft
800 to 1500m
200 to 500 ft
< 800m
< 200 ft
Symbols :   Thunderstorms  Fog  Heavy snow  Heavy precipitations  Wind > 20 kt
SIGMETs :     Misc.  Thunderstorms  Icing  Turbulence  Mountain Waves  Volcanic Ashes






- Airport Elevation : 113 ft


EKRS - Ringsted

CURRENT METAR :
  • 190320Z AUTO 21015G25KT 160V290 6000 -RA SCT013/// BKN019/// OVC024/// 05/05 Q1002

EXPIRED METARs :
  • 190250Z AUTO 21015KT 170V260 6000 -RA SCT014/// BKN019/// OVC026/// 05/05 Q1002
  • 190220Z AUTO 21013G24KT 170V240 9999 UP SCT011/// BKN013/// OVC017/// 05/05 Q1003
  • 190150Z AUTO 22010KT 180V270 9999 -RA FEW008/// SCT010/// BKN015/// 05/05 Q1004
  • 190120Z AUTO 21010KT 180V250 9999 -RA OVC009/// 05/05 Q1004
  • 190050Z AUTO 22009KT 170V270 9999 BKN010/// BKN012/// OVC017/// 05/05 Q1005

TAF N/A



MET'MAP, your aeronautical weather chart ! - Copyright ORBIFLY December 2007 - Disclaimer

ORBIFLY MET'MAP TEAM :

Programming & Development : Alexandra Zaïnal
Concept & original design : Baudouin d'Aumeries
Assistance for programming : Marc-Olivier Méhu
Technical & hardware support : Manuel Goepfert

Contact : metmap@orbifly.com




SOURCES & CREDITS :

   NOAA